Time;durP1;ratioP1;P1;durP2;ratioP2;P2;SDS_P1;SDS_P2;PMS_P1;PMS_P2;Temp;Humidity;BMP_temperature;BMP_pressure;BME280_temperature;BME280_humidity;BME280_pressure;Samples;Min_cycle;Max_cycle;Signal;HPM_P1;HPM_P2
2022/10/31 00:00:09;;;;;;;8.27;7.47;;;11.00;99.90;;;;;;5013098;28;20614;-80
2022/10/31 00:02:39;;;;;;;8.20;6.40;;;10.90;99.90;;;;;;5018997;28;20221;-82
2022/10/31 00:05:06;;;;;;;10.03;6.77;;;11.00;99.90;;;;;;5020795;28;20206;-80
2022/10/31 00:07:33;;;;;;;9.27;5.50;;;10.90;99.90;;;;;;5024302;28;20813;-81
2022/10/31 00:09:59;;;;;;;5.93;3.83;;;11.00;99.90;;;;;;5023615;28;20271;-80
2022/10/31 00:12:27;;;;;;;5.90;4.80;;;11.00;99.90;;;;;;5026281;28;20216;-80
2022/10/31 00:14:55;;;;;;;8.47;5.70;;;11.00;99.90;;;;;;5024890;28;20204;-80
2022/10/31 00:17:22;;;;;;;7.23;5.60;;;10.90;99.90;;;;;;5019483;28;20204;-80
2022/10/31 00:19:49;;;;;;;7.50;6.73;;;10.80;99.90;;;;;;5020164;28;20224;-81
2022/10/31 00:22:16;;;;;;;10.50;9.50;;;10.80;99.90;;;;;;5019412;28;20228;-80
2022/10/31 00:24:43;;;;;;;11.17;9.30;;;10.70;99.90;;;;;;5019921;28;20196;-79
2022/10/31 00:27:10;;;;;;;14.10;12.90;;;10.60;99.90;;;;;;5017144;28;20228;-80
2022/10/31 00:29:36;;;;;;;10.17;9.23;;;10.60;99.90;;;;;;5020411;28;20291;-81
2022/10/31 00:32:05;;;;;;;11.80;10.90;;;10.60;99.90;;;;;;5017146;28;20200;-80
2022/10/31 00:34:32;;;;;;;11.03;9.93;;;10.50;99.90;;;;;;5025379;28;20197;-81
2022/10/31 00:37:00;;;;;;;10.93;9.90;;;10.50;99.90;;;;;;5018176;28;20192;-80
2022/10/31 00:39:27;;;;;;;11.60;10.60;;;10.40;99.90;;;;;;5015214;28;20213;-81
2022/10/31 00:41:54;;;;;;;10.83;9.93;;;10.40;99.90;;;;;;5019412;28;20241;-81
2022/10/31 00:44:20;;;;;;;11.07;10.17;;;10.30;99.90;;;;;;5016104;28;20209;-79
2022/10/31 00:46:47;;;;;;;11.23;10.23;;;10.30;99.90;;;;;;5020093;28;20605;-80
2022/10/31 00:49:15;;;;;;;12.07;10.87;;;10.20;99.90;;;;;;5019025;28;20240;-80
2022/10/31 00:51:43;;;;;;;11.27;10.20;;;10.20;99.90;;;;;;5017664;28;20194;-80
2022/10/31 00:54:10;;;;;;;12.03;10.17;;;10.10;99.90;;;;;;5018672;28;20188;-80
2022/10/31 00:56:36;;;;;;;11.90;11.00;;;10.10;99.90;;;;;;5020285;28;20203;-80
2022/10/31 00:59:03;;;;;;;13.27;11.97;;;10.00;99.90;;;;;;5020188;28;20213;-79
2022/10/31 01:01:30;;;;;;;12.47;11.33;;;10.00;99.90;;;;;;5015458;28;20197;-80
2022/10/31 01:03:58;;;;;;;13.07;11.80;;;10.00;99.90;;;;;;5023600;28;20261;-80
2022/10/31 01:06:28;;;;;;;12.90;11.57;;;10.00;99.90;;;;;;5017770;28;20197;-80
2022/10/31 01:08:57;;;;;;;12.07;10.87;;;9.90;99.90;;;;;;5016588;28;20223;-80
2022/10/31 01:11:24;;;;;;;12.30;11.20;;;9.90;99.90;;;;;;5016224;28;20200;-80
2022/10/31 01:13:53;;;;;;;12.97;11.77;;;9.90;99.90;;;;;;5023729;28;20210;-80
2022/10/31 01:16:23;;;;;;;12.40;11.13;;;10.00;99.90;;;;;;5016771;28;20219;-81
2022/10/31 01:18:50;;;;;;;11.70;10.70;;;9.90;99.90;;;;;;5016932;28;20224;-81
2022/10/31 01:21:19;;;;;;;12.40;11.30;;;9.90;99.90;;;;;;5020377;28;20200;-79
2022/10/31 01:23:50;;;;;;;12.10;10.90;;;9.90;99.90;;;;;;5016519;28;20196;-81
2022/10/31 01:26:21;;;;;;;12.83;11.73;;;9.90;99.90;;;;;;5014566;28;20758;-81
2022/10/31 01:28:50;;;;;;;13.10;11.27;;;9.80;99.90;;;;;;5013560;28;20294;-80
2022/10/31 01:31:18;;;;;;;13.43;11.23;;;9.80;99.90;;;;;;5011874;28;20209;-80
2022/10/31 01:33:45;;;;;;;13.67;12.20;;;9.70;99.90;;;;;;5017619;28;20208;-80
2022/10/31 01:36:14;;;;;;;13.53;12.13;;;9.60;99.90;;;;;;5015065;28;20204;-80
2022/10/31 01:38:41;;;;;;;12.83;11.67;;;9.60;99.90;;;;;;5017160;28;20619;-80
2022/10/31 01:41:10;;;;;;;13.70;11.20;;;9.50;99.90;;;;;;5017702;28;20196;-80
2022/10/31 01:43:48;;;;;;;13.00;11.77;;;9.50;99.90;;;;;;5010031;28;20217;-81
2022/10/31 01:46:18;;;;;;;12.00;11.00;;;9.50;99.90;;;;;;5011610;28;20226;-80
2022/10/31 01:48:46;;;;;;;13.30;12.07;;;9.50;99.90;;;;;;5015307;28;20638;-81
2022/10/31 01:51:15;;;;;;;14.20;12.37;;;9.50;99.90;;;;;;5013147;28;20213;-80
2022/10/31 01:53:44;;;;;;;12.03;10.80;;;9.50;99.90;;;;;;5014967;28;20197;-81
2022/10/31 01:56:15;;;;;;;12.20;11.00;;;9.50;99.90;;;;;;5017390;28;20196;-81
2022/10/31 01:58:44;;;;;;;12.10;11.13;;;9.50;99.90;;;;;;5013297;28;20568;-80
2022/10/31 02:01:11;;;;;;;12.23;11.23;;;9.50;99.90;;;;;;5012745;28;20205;-80
2022/10/31 02:03:38;;;;;;;12.60;11.40;;;9.40;99.90;;;;;;5015562;28;20279;-80
2022/10/31 02:06:11;;;;;;;12.00;10.90;;;9.40;99.90;;;;;;5014567;28;20201;-79
2022/10/31 02:08:40;;;;;;;13.07;11.77;;;9.40;99.90;;;;;;5015152;28;20235;-81
2022/10/31 02:11:08;;;;;;;13.57;12.10;;;9.50;99.90;;;;;;5012132;28;20225;-79
2022/10/31 02:13:39;;;;;;;14.07;12.00;;;9.50;99.90;;;;;;5015264;28;20193;-80
2022/10/31 02:16:10;;;;;;;14.17;11.77;;;9.50;99.90;;;;;;5012965;28;20189;-80
2022/10/31 02:18:37;;;;;;;13.37;12.17;;;9.60;99.90;;;;;;5017822;28;20221;-81
2022/10/31 02:21:12;;;;;;;13.17;12.03;;;9.60;99.90;;;;;;5016727;28;20193;-81
2022/10/31 02:24:37;;;;;;;14.20;11.83;;;9.60;99.90;;;;;;5015531;28;20221;-80
2022/10/31 02:27:27;;;;;;;13.57;12.17;;;9.60;99.90;;;;;;5014801;28;20288;-80
2022/10/31 02:30:14;;;;;;;12.10;11.00;;;9.60;99.90;;;;;;4999738;28;20224;-81
2022/10/31 02:33:08;;;;;;;12.20;11.10;;;9.60;99.90;;;;;;5014634;28;20224;-81
2022/10/31 02:35:43;;;;;;;11.93;10.83;;;9.60;99.90;;;;;;5013355;28;20204;-81
2022/10/31 02:38:23;;;;;;;10.53;9.40;;;9.60;99.90;;;;;;5013460;28;20196;-80
2022/10/31 02:40:59;;;;;;;11.57;8.40;;;9.60;99.90;;;;;;5016994;28;20188;-81
2022/10/31 02:44:01;;;;;;;10.27;8.70;;;9.50;99.90;;;;;;5014489;28;20651;-81
2022/10/31 02:46:33;;;;;;;11.13;8.33;;;9.50;99.90;;;;;;5011084;28;20196;-81
2022/10/31 02:49:08;;;;;;;9.67;8.77;;;9.50;99.90;;;;;;5014050;28;20216;-80
2022/10/31 02:51:36;;;;;;;12.60;11.30;;;9.50;99.90;;;;;;5014713;28;20195;-81
2022/10/31 02:54:04;;;;;;;12.20;11.20;;;9.50;99.90;;;;;;5012495;28;20219;-80
2022/10/31 02:56:31;;;;;;;9.50;8.60;;;9.50;99.90;;;;;;5015277;28;20205;-80
2022/10/31 02:59:02;;;;;;;11.37;10.27;;;9.50;99.90;;;;;;5012727;28;20227;-79
2022/10/31 03:01:42;;;;;;;12.80;11.53;;;9.50;99.90;;;;;;5011596;28;20697;-80
2022/10/31 03:04:23;;;;;;;12.77;11.77;;;9.50;99.90;;;;;;5018934;28;20204;-80
2022/10/31 03:06:57;;;;;;;13.30;12.03;;;9.50;99.90;;;;;;5014623;28;20209;-81
2022/10/31 03:09:33;;;;;;;11.37;10.03;;;9.60;99.90;;;;;;5013011;28;20299;-80
2022/10/31 03:12:08;;;;;;;11.77;10.67;;;9.60;99.90;;;;;;5011222;28;20204;-80
2022/10/31 03:14:43;;;;;;;9.47;7.70;;;9.60;99.90;;;;;;5012381;28;20238;-80
2022/10/31 03:17:17;;;;;;;13.23;11.73;;;9.60;99.90;;;;;;5013917;28;20200;-81
2022/10/31 03:19:50;;;;;;;14.70;13.23;;;9.60;99.90;;;;;;5012934;28;20216;-80
2022/10/31 03:22:21;;;;;;;12.83;11.50;;;9.50;99.90;;;;;;5018877;28;20203;-81
2022/10/31 03:24:49;;;;;;;14.70;13.40;;;9.50;99.90;;;;;;5013025;28;20201;-80
2022/10/31 03:27:19;;;;;;;12.73;9.10;;;9.50;99.90;;;;;;5014373;28;20553;-80
2022/10/31 03:29:49;;;;;;;9.07;8.13;;;9.50;99.90;;;;;;5016515;28;20260;-80
2022/10/31 03:32:20;;;;;;;12.67;11.47;;;9.50;99.90;;;;;;5017225;28;20197;-81
2022/10/31 03:34:51;;;;;;;11.97;11.07;;;9.50;99.90;;;;;;5013638;28;20193;-80
2022/10/31 03:37:21;;;;;;;14.10;12.93;;;9.40;99.90;;;;;;5011852;28;20580;-80
2022/10/31 03:39:50;;;;;;;13.53;12.20;;;9.40;99.90;;;;;;5010464;28;20246;-80
2022/10/31 03:42:21;;;;;;;12.47;11.50;;;9.30;99.90;;;;;;5009654;28;20209;-79
2022/10/31 03:44:54;;;;;;;12.40;11.40;;;9.20;99.90;;;;;;5019161;28;20200;-81
2022/10/31 03:47:21;;;;;;;13.10;11.90;;;9.20;99.90;;;;;;5019018;28;20197;-80
2022/10/31 03:49:50;;;;;;;12.60;11.40;;;9.20;99.90;;;;;;5014585;28;20217;-82
2022/10/31 03:52:24;;;;;;;11.30;9.83;;;9.20;99.90;;;;;;5015466;28;20192;-81
2022/10/31 03:54:56;;;;;;;12.63;11.47;;;9.20;99.90;;;;;;5007263;28;20201;-81
2022/10/31 03:57:28;;;;;;;13.63;12.53;;;9.20;99.90;;;;;;5018565;28;20199;-82
2022/10/31 03:59:59;;;;;;;14.13;12.70;;;9.10;99.90;;;;;;5002519;28;20217;-80
2022/10/31 04:02:31;;;;;;;14.20;12.93;;;9.10;99.90;;;;;;5011625;28;20272;-80
2022/10/31 04:05:02;;;;;;;13.97;12.60;;;9.10;99.90;;;;;;5011463;28;20224;-80
2022/10/31 04:07:34;;;;;;;14.43;13.03;;;9.10;99.90;;;;;;5015517;28;20197;-80
2022/10/31 04:10:02;;;;;;;14.20;12.80;;;9.10;99.90;;;;;;5012891;28;20224;-81
2022/10/31 04:12:32;;;;;;;13.77;12.47;;;9.00;99.90;;;;;;5007459;28;20201;-81
2022/10/31 04:15:21;;;;;;;14.57;13.07;;;9.00;99.90;;;;;;5005855;28;20720;-81
2022/10/31 04:17:52;;;;;;;13.50;12.30;;;9.00;99.90;;;;;;5012678;28;20203;-81
2022/10/31 04:20:30;;;;;;;15.40;12.30;;;9.00;99.90;;;;;;5009310;28;20759;-81
2022/10/31 04:22:57;;;;;;;13.70;12.23;;;8.90;99.90;;;;;;5012941;28;20262;-82
2022/10/31 04:25:24;;;;;;;11.43;9.30;;;8.90;99.90;;;;;;5012904;28;20207;-81
2022/10/31 04:27:52;;;;;;;8.30;7.50;;;8.80;99.90;;;;;;5008559;28;20192;-81
2022/10/31 04:30:19;;;;;;;10.33;8.30;;;8.80;99.90;;;;;;5007702;28;20270;-81
2022/10/31 04:32:46;;;;;;;10.70;8.13;;;8.80;99.90;;;;;;5011788;28;20216;-81
2022/10/31 04:35:13;;;;;;;12.37;11.47;;;8.80;99.90;;;;;;5006077;28;20201;-83
2022/10/31 04:37:42;;;;;;;13.23;12.13;;;8.90;99.90;;;;;;5009205;28;20701;-82
2022/10/31 04:40:10;;;;;;;9.97;8.97;;;8.80;99.90;;;;;;5007515;28;20656;-81
2022/10/31 04:42:55;;;;;;;9.43;6.50;;;8.80;99.90;;;;;;5008003;28;20227;-80
2022/10/31 04:45:22;;;;;;;13.27;11.97;;;8.70;99.90;;;;;;5009325;28;20586;-84
2022/10/31 04:47:52;;;;;;;12.03;6.53;;;8.70;99.90;;;;;;5005811;28;20205;-81
2022/10/31 04:50:19;;;;;;;10.60;7.10;;;8.60;99.90;;;;;;5009669;28;20647;-82
2022/10/31 04:52:47;;;;;;;13.50;11.10;;;8.50;99.90;;;;;;5005702;28;20716;-80
2022/10/31 04:55:18;;;;;;;15.70;12.77;;;8.50;99.90;;;;;;5006421;28;20205;-82
2022/10/31 04:57:51;;;;;;;15.77;9.73;;;8.40;99.90;;;;;;5002274;28;20211;-82
2022/10/31 05:00:21;;;;;;;15.83;10.63;;;8.40;99.90;;;;;;5011492;28;20217;-81
2022/10/31 05:02:51;;;;;;;13.93;8.97;;;8.40;99.90;;;;;;5016478;28;20217;-82
2022/10/31 05:05:21;;;;;;;13.83;8.63;;;8.40;99.90;;;;;;5011637;28;20610;-83
2022/10/31 05:07:51;;;;;;;12.83;9.00;;;8.40;99.90;;;;;;5016390;28;20205;-82
2022/10/31 05:10:21;;;;;;;17.27;15.47;;;8.50;99.90;;;;;;5003238;28;20585;-81
2022/10/31 05:12:52;;;;;;;16.17;14.50;;;8.50;99.90;;;;;;5020077;28;20223;-81
2022/10/31 05:15:31;;;;;;;15.47;13.47;;;8.60;99.90;;;;;;5017083;28;20197;-81
2022/10/31 05:18:36;;;;;;;13.97;9.17;;;8.70;99.90;;;;;;5007784;28;20262;-80
2022/10/31 05:21:22;;;;;;;10.43;7.27;;;8.70;99.90;;;;;;5017011;28;20251;-82
2022/10/31 05:23:53;;;;;;;14.70;9.23;;;8.60;99.90;;;;;;5012763;28;20299;-81
2022/10/31 05:26:23;;;;;;;13.50;9.53;;;8.60;99.90;;;;;;5011391;28;20220;-80
2022/10/31 05:28:51;;;;;;;12.93;11.57;;;8.60;99.90;;;;;;5002355;28;20275;-79
2022/10/31 05:31:18;;;;;;;11.90;10.27;;;8.60;99.90;;;;;;5000173;28;20201;-81
2022/10/31 05:33:45;;;;;;;9.90;8.90;;;8.50;99.90;;;;;;5000548;28;20369;-81
2022/10/31 05:36:50;;;;;;;9.40;8.40;;;8.60;99.90;;;;;;4975470;28;20630;-80
2022/10/31 05:39:21;;;;;;;7.80;6.67;;;8.60;99.90;;;;;;4949055;28;20229;-80
2022/10/31 05:41:51;;;;;;;9.57;7.43;;;8.60;99.90;;;;;;4988606;28;20254;-80
2022/10/31 05:44:26;;;;;;;13.10;10.03;;;8.50;99.90;;;;;;5010964;28;20314;-83
2022/10/31 05:47:22;;;;;;;11.23;6.73;;;8.60;99.90;;;;;;5007741;28;20223;-79
2022/10/31 05:50:09;;;;;;;8.40;6.37;;;8.60;99.90;;;;;;5016280;28;20351;-81
2022/10/31 05:52:47;;;;;;;10.67;6.17;;;8.50;99.90;;;;;;5015891;28;20267;-81
2022/10/31 05:55:22;;;;;;;7.20;6.00;;;8.50;99.90;;;;;;5015421;28;20265;-81
2022/10/31 05:58:04;;;;;;;12.97;8.20;;;8.50;99.90;;;;;;5008528;28;20201;-81
2022/10/31 06:00:31;;;;;;;12.13;6.90;;;8.40;99.90;;;;;;5007970;28;20198;-81
2022/10/31 06:03:07;;;;;;;9.03;6.47;;;8.40;99.90;;;;;;4998860;28;20208;-82
2022/10/31 06:05:42;;;;;;;8.53;6.97;;;8.40;99.90;;;;;;5014215;28;20590;-80
2022/10/31 06:08:09;;;;;;;11.73;6.30;;;8.30;99.90;;;;;;5012842;28;20196;-81
2022/10/31 06:10:40;;;;;;;9.60;6.17;;;8.40;99.90;;;;;;5018695;28;20196;-83
2022/10/31 06:13:07;;;;;;;10.10;8.23;;;8.40;99.90;;;;;;5015726;28;20689;-83
2022/10/31 06:15:43;;;;;;;7.77;6.23;;;8.40;99.90;;;;;;5010336;28;20206;-83
2022/10/31 06:18:10;;;;;;;9.50;6.30;;;8.30;99.90;;;;;;5011629;28;20193;-83
2022/10/31 06:20:46;;;;;;;10.67;6.73;;;8.30;99.90;;;;;;5008914;28;20676;-82
2022/10/31 06:23:13;;;;;;;10.27;6.60;;;8.30;99.90;;;;;;5005505;28;20220;-80
2022/10/31 06:25:43;;;;;;;9.03;7.43;;;8.30;99.90;;;;;;4998943;28;20279;-80
2022/10/31 06:28:12;;;;;;;14.60;7.90;;;8.30;99.90;;;;;;4999948;28;20209;-80
2022/10/31 06:30:49;;;;;;;12.20;7.63;;;8.30;99.90;;;;;;4998349;28;20596;-82
2022/10/31 06:33:16;;;;;;;11.10;7.27;;;8.30;99.90;;;;;;5012571;28;20464;-81
2022/10/31 06:35:53;;;;;;;11.83;6.90;;;8.20;99.90;;;;;;5007562;28;20589;-82
2022/10/31 06:38:21;;;;;;;11.93;7.30;;;8.30;99.90;;;;;;5006481;28;20732;-80
2022/10/31 06:40:49;;;;;;;8.53;6.80;;;8.40;99.90;;;;;;5006450;28;20189;-78
2022/10/31 06:43:36;;;;;;;11.03;6.73;;;8.40;99.90;;;;;;5008559;28;20328;-77
2022/10/31 06:46:24;;;;;;;8.87;6.63;;;8.50;99.90;;;;;;5010138;28;20290;-79
2022/10/31 06:49:09;;;;;;;7.83;6.17;;;8.60;99.90;;;;;;5008308;28;20590;-79
2022/10/31 06:51:42;;;;;;;11.83;6.17;;;8.70;99.90;;;;;;5007461;28;20204;-80
2022/10/31 06:54:09;;;;;;;8.47;6.53;;;8.80;99.90;;;;;;5007286;28;20192;-79
2022/10/31 06:56:38;;;;;;;11.53;7.30;;;8.80;99.90;;;;;;5010198;28;20259;-79
2022/10/31 06:59:08;;;;;;;12.37;7.40;;;8.90;99.90;;;;;;5010390;28;20251;-79
2022/10/31 07:02:00;;;;;;;12.70;6.70;;;9.00;99.90;;;;;;5011022;28;20216;-79
2022/10/31 07:04:27;;;;;;;9.03;6.13;;;9.10;99.90;;;;;;5005023;28;20208;-79
2022/10/31 07:06:54;;;;;;;12.77;8.83;;;9.10;99.90;;;;;;5009826;28;20192;-79
2022/10/31 07:09:21;;;;;;;9.20;5.63;;;9.20;99.90;;;;;;5006338;28;20230;-80
2022/10/31 07:11:52;;;;;;;10.17;6.03;;;9.30;99.90;;;;;;5009521;28;20203;-80
2022/10/31 07:14:19;;;;;;;7.77;6.57;;;9.40;99.90;;;;;;5009038;28;20197;-79
2022/10/31 07:16:50;;;;;;;13.90;12.77;;;9.50;99.90;;;;;;5008882;28;20200;-79
2022/10/31 07:19:19;;;;;;;13.40;12.40;;;9.70;99.90;;;;;;5007495;28;20221;-79
2022/10/31 07:21:47;;;;;;;13.47;12.43;;;9.80;99.90;;;;;;5011324;28;20224;-79
2022/10/31 07:24:15;;;;;;;13.07;11.97;;;10.00;99.90;;;;;;5013568;28;20308;-79
2022/10/31 07:27:06;;;;;;;9.73;8.80;;;10.10;99.90;;;;;;5014243;28;20246;-79
2022/10/31 07:29:33;;;;;;;9.43;6.03;;;10.20;99.90;;;;;;5012365;28;20227;-79
2022/10/31 07:32:01;;;;;;;8.63;7.83;;;10.30;99.90;;;;;;5005934;28;20678;-79
2022/10/31 07:34:30;;;;;;;9.43;6.43;;;10.30;99.90;;;;;;5008590;28;20198;-79
2022/10/31 07:37:16;;;;;;;11.87;4.70;;;10.40;99.90;;;;;;5010441;28;20216;-78
2022/10/31 07:39:42;;;;;;;6.70;5.27;;;10.50;99.90;;;;;;5007563;28;20220;-79
2022/10/31 07:42:11;;;;;;;7.80;7.03;;;10.70;99.90;;;;;;5012975;28;20740;-79
2022/10/31 07:44:43;;;;;;;6.57;4.80;;;10.80;99.90;;;;;;5009172;28;20228;-79
2022/10/31 07:47:29;;;;;;;13.37;12.37;;;11.00;99.90;;;;;;5005736;28;20309;-79
2022/10/31 07:50:10;;;;;;;11.47;10.47;;;11.10;99.90;;;;;;5007098;28;20639;-79
2022/10/31 07:53:03;;;;;;;11.73;10.83;;;11.30;99.90;;;;;;5006979;28;20705;-79
2022/10/31 07:56:05;;;;;;;7.43;4.93;;;11.40;99.90;;;;;;4993845;28;20326;-79
2022/10/31 07:58:33;;;;;;;8.37;5.60;;;11.60;99.90;;;;;;5007368;28;20214;-79
2022/10/31 08:01:00;;;;;;;10.83;9.83;;;11.80;99.90;;;;;;4998338;28;20208;-80
2022/10/31 08:03:36;;;;;;;11.93;10.03;;;11.90;99.90;;;;;;4998375;28;20214;-80
2022/10/31 08:06:25;;;;;;;10.83;9.77;;;12.20;99.90;;;;;;5006074;28;20911;-80
2022/10/31 08:09:31;;;;;;;11.20;10.20;;;12.40;99.90;;;;;;5002617;28;20234;-79
2022/10/31 08:12:02;;;;;;;12.20;11.17;;;12.50;99.90;;;;;;5008398;28;20581;-79
2022/10/31 08:14:32;;;;;;;10.83;9.83;;;12.60;99.90;;;;;;4998978;28;20197;-80
2022/10/31 08:16:59;;;;;;;11.13;9.97;;;12.80;99.90;;;;;;5006904;28;20212;-80
2022/10/31 08:19:33;;;;;;;6.77;5.00;;;12.90;99.90;;;;;;5009710;28;20212;-80
2022/10/31 08:22:01;;;;;;;12.33;10.90;;;13.20;99.90;;;;;;5010025;28;20223;-80
2022/10/31 08:24:28;;;;;;;9.93;9.10;;;13.40;99.90;;;;;;5005552;28;20690;-80
2022/10/31 08:26:57;;;;;;;9.60;8.70;;;13.60;99.90;;;;;;5013036;28;20588;-80
2022/10/31 08:29:25;;;;;;;11.43;9.60;;;13.70;99.90;;;;;;5013404;28;20221;-80
2022/10/31 08:31:53;;;;;;;9.37;7.70;;;13.80;99.90;;;;;;5011982;28;20198;-80
2022/10/31 08:34:38;;;;;;;8.17;6.80;;;13.90;99.90;;;;;;5004974;28;20196;-80
2022/10/31 08:37:24;;;;;;;7.87;5.00;;;14.10;99.90;;;;;;5010788;28;20203;-80
2022/10/31 08:39:54;;;;;;;7.53;5.83;;;14.10;99.90;;;;;;5009088;28;20213;-80
2022/10/31 08:42:22;;;;;;;7.07;4.60;;;14.20;99.90;;;;;;5011939;28;20266;-80
2022/10/31 08:44:49;;;;;;;8.20;5.20;;;14.20;99.90;;;;;;5013053;28;20216;-79
2022/10/31 08:47:17;;;;;;;6.73;4.90;;;14.20;99.90;;;;;;5014957;28;20204;-80
2022/10/31 08:49:44;;;;;;;8.90;7.10;;;14.20;99.90;;;;;;5009852;28;20624;-80
2022/10/31 08:52:11;;;;;;;9.20;8.30;;;14.20;99.90;;;;;;5009522;28;20291;-80
2022/10/31 08:54:40;;;;;;;11.80;10.73;;;14.40;99.90;;;;;;5008530;28;20191;-80
2022/10/31 08:57:37;;;;;;;11.70;10.70;;;14.40;99.90;;;;;;5014175;28;20304;-80
2022/10/31 09:00:05;;;;;;;8.83;5.07;;;14.30;99.90;;;;;;5010057;28;20246;-80
2022/10/31 09:02:57;;;;;;;11.23;10.33;;;14.30;99.90;;;;;;5011059;28;20218;-80
2022/10/31 09:05:25;;;;;;;13.43;9.43;;;14.40;99.90;;;;;;5009274;28;20659;-80
2022/10/31 09:07:55;;;;;;;11.20;8.97;;;14.50;99.90;;;;;;5009787;28;20554;-80
2022/10/31 09:10:22;;;;;;;8.50;5.00;;;14.60;99.90;;;;;;5011013;28;20289;-79
2022/10/31 09:12:55;;;;;;;8.10;5.03;;;14.80;99.90;;;;;;5012369;28;20206;-80
2022/10/31 09:15:44;;;;;;;9.00;4.93;;;14.80;99.90;;;;;;5008682;28;20200;-80
2022/10/31 09:18:24;;;;;;;8.93;5.47;;;14.80;99.90;;;;;;5014302;28;20225;-80
2022/10/31 09:21:01;;;;;;;8.27;5.83;;;14.80;99.90;;;;;;5011720;28;20197;-80
2022/10/31 09:23:30;;;;;;;6.53;4.80;;;14.90;99.90;;;;;;5006481;28;20563;-79
2022/10/31 09:26:02;;;;;;;9.53;7.97;;;15.00;99.90;;;;;;5010938;28;20257;-80
2022/10/31 09:28:32;;;;;;;7.13;4.80;;;15.10;99.90;;;;;;5003643;28;20274;-80
2022/10/31 09:31:05;;;;;;;6.27;5.03;;;15.20;99.90;;;;;;5010733;28;20642;-80
2022/10/31 09:33:54;;;;;;;10.73;9.87;;;15.30;99.90;;;;;;5010956;28;20252;-80
2022/10/31 09:36:36;;;;;;;10.67;9.60;;;15.40;99.90;;;;;;5004682;28;20292;-80
2022/10/31 09:39:04;;;;;;;5.90;4.40;;;15.50;99.90;;;;;;5007948;28;20705;-79
2022/10/31 09:41:48;;;;;;;10.70;5.23;;;15.70;99.90;;;;;;5013552;28;20199;-80
2022/10/31 09:44:25;;;;;;;10.70;9.70;;;15.80;99.90;;;;;;5013367;28;20692;-80
2022/10/31 09:47:01;;;;;;;11.33;9.33;;;16.00;99.90;;;;;;5010654;28;20220;-80
2022/10/31 09:49:45;;;;;;;10.00;9.20;;;16.10;99.90;;;;;;5006668;28;20220;-80
2022/10/31 09:52:18;;;;;;;5.77;4.80;;;16.10;99.90;;;;;;5005812;28;20207;-80
2022/10/31 09:54:49;;;;;;;11.10;10.00;;;16.20;99.90;;;;;;5007249;28;20197;-80
2022/10/31 09:57:23;;;;;;;13.67;10.47;;;16.20;99.90;;;;;;5012292;28;20251;-81
2022/10/31 09:59:50;;;;;;;12.70;5.40;;;16.30;99.90;;;;;;5009650;28;20224;-80
2022/10/31 10:02:24;;;;;;;8.53;5.43;;;16.10;99.90;;;;;;5014107;28;20220;-80
2022/10/31 10:04:58;;;;;;;6.30;4.60;;;16.30;99.90;;;;;;5015392;28;20591;-80
2022/10/31 10:07:33;;;;;;;8.77;7.90;;;16.30;99.90;;;;;;5015044;28;20243;-80
2022/10/31 10:10:37;;;;;;;8.23;7.53;;;16.50;99.90;;;;;;5007972;28;20239;-80
2022/10/31 10:13:47;;;;;;;8.67;6.07;;;16.70;99.90;;;;;;5015286;28;20287;-80
2022/10/31 10:16:33;;;;;;;7.27;4.97;;;16.80;99.90;;;;;;5012980;28;20197;-81
2022/10/31 10:19:15;;;;;;;12.00;10.90;;;16.90;99.90;;;;;;5011855;28;20355;-81
2022/10/31 10:21:54;;;;;;;9.13;5.67;;;17.00;99.90;;;;;;5010073;28;20248;-81
2022/10/31 10:24:35;;;;;;;11.20;10.13;;;17.00;99.90;;;;;;5014220;28;20251;-80
2022/10/31 10:27:12;;;;;;;8.40;6.37;;;16.90;99.90;;;;;;5007285;28;20239;-81
2022/10/31 10:29:45;;;;;;;6.80;4.90;;;16.90;99.90;;;;;;5010495;28;20220;-80
2022/10/31 10:32:18;;;;;;;6.63;4.53;;;16.90;99.90;;;;;;5010894;28;20196;-80
2022/10/31 10:34:48;;;;;;;9.50;7.17;;;16.90;99.90;;;;;;5008702;28;20665;-80
2022/10/31 10:37:24;;;;;;;7.43;6.73;;;16.90;99.90;;;;;;5013469;28;20267;-80
2022/10/31 10:39:56;;;;;;;9.47;6.70;;;16.90;99.90;;;;;;5010916;28;20232;-80
2022/10/31 10:48:09;;;;;;;8.37;5.83;;;16.90;99.90;;;;;;5009896;28;20200;-80
2022/10/31 10:50:42;;;;;;;6.23;4.97;;;17.00;99.90;;;;;;5007739;28;20558;-80
2022/10/31 10:53:31;;;;;;;10.07;9.17;;;17.00;99.90;;;;;;5008572;28;20193;-81
2022/10/31 10:56:04;;;;;;;11.70;10.60;;;17.10;99.90;;;;;;5008866;28;20274;-80
2022/10/31 10:58:31;;;;;;;11.33;10.17;;;17.20;99.90;;;;;;4998161;28;20654;-80
2022/10/31 11:00:58;;;;;;;11.77;10.57;;;17.20;99.90;;;;;;5013265;28;20200;-80
2022/10/31 11:03:25;;;;;;;9.03;4.97;;;17.20;99.90;;;;;;5011284;28;20204;-80
2022/10/31 11:05:53;;;;;;;6.17;5.07;;;17.20;99.90;;;;;;5008849;28;20725;-80
2022/10/31 11:08:30;;;;;;;14.03;7.33;;;17.30;99.90;;;;;;5008106;28;20253;-81
2022/10/31 11:11:04;;;;;;;8.33;5.00;;;17.40;99.90;;;;;;5008664;28;20201;-80
2022/10/31 11:13:32;;;;;;;7.80;4.17;;;17.60;99.90;;;;;;5003432;28;20200;-80
2022/10/31 11:16:03;;;;;;;5.93;4.37;;;17.80;99.90;;;;;;5009776;28;20669;-80
2022/10/31 11:18:32;;;;;;;8.00;5.20;;;17.80;99.90;;;;;;5007426;28;20221;-80
2022/10/31 11:21:02;;;;;;;7.73;4.63;;;17.80;99.90;;;;;;5005761;28;20237;-80
2022/10/31 11:23:31;;;;;;;7.47;4.20;;;17.80;99.90;;;;;;5007080;28;20206;-80
2022/10/31 11:26:00;;;;;;;5.93;4.50;;;17.90;99.90;;;;;;5008388;28;20214;-80
2022/10/31 11:28:29;;;;;;;5.40;4.23;;;17.90;99.90;;;;;;5007754;28;20285;-80
2022/10/31 11:30:58;;;;;;;10.50;9.77;;;18.10;99.90;;;;;;5007069;28;20681;-80
2022/10/31 11:33:30;;;;;;;7.90;4.20;;;18.20;99.90;;;;;;5010396;28;20206;-80
2022/10/31 11:35:58;;;;;;;7.33;4.60;;;18.10;99.90;;;;;;5005723;28;20266;-81
2022/10/31 11:38:29;;;;;;;10.30;9.43;;;18.20;99.90;;;;;;5014166;28;20257;-80
2022/10/31 11:41:04;;;;;;;8.27;7.23;;;18.20;99.90;;;;;;5011319;28;20200;-80
2022/10/31 11:43:30;;;;;;;6.80;5.37;;;18.30;99.90;;;;;;5007251;28;20204;-80
2022/10/31 11:45:57;;;;;;;6.23;4.60;;;18.30;99.90;;;;;;5005401;28;20630;-80
2022/10/31 11:48:26;;;;;;;7.00;4.73;;;18.30;99.90;;;;;;5008734;28;20225;-81
2022/10/31 11:50:56;;;;;;;6.60;4.50;;;18.30;99.90;;;;;;5009961;28;20195;-80
2022/10/31 11:53:29;;;;;;;8.40;5.90;;;18.30;99.90;;;;;;5008466;28;20206;-81
2022/10/31 11:56:13;;;;;;;9.93;9.03;;;18.40;99.90;;;;;;5008018;28;20665;-80
2022/10/31 11:58:41;;;;;;;6.27;4.80;;;18.30;99.90;;;;;;5004429;28;20263;-80
2022/10/31 12:01:24;;;;;;;4.90;4.20;;;18.40;99.90;;;;;;5010700;28;20238;-80
2022/10/31 12:04:03;;;;;;;5.57;4.13;;;18.40;99.90;;;;;;5005028;28;20262;-82
2022/10/31 12:06:33;;;;;;;4.10;3.60;;;18.50;99.90;;;;;;5006386;28;20226;-83
2022/10/31 12:09:01;;;;;;;5.50;5.00;;;18.50;99.90;;;;;;5011436;28;20214;-84
2022/10/31 12:11:46;;;;;;;4.93;4.00;;;18.50;99.90;;;;;;5007092;28;20215;-85
2022/10/31 12:14:27;;;;;;;5.40;3.93;;;18.50;99.90;;;;;;5004361;28;20601;-85
2022/10/31 12:17:00;;;;;;;7.30;4.00;;;18.40;99.90;;;;;;5013653;28;20195;-83
2022/10/31 12:19:38;;;;;;;3.60;3.30;;;18.40;99.90;;;;;;5009806;28;20223;-81
2022/10/31 12:22:13;;;;;;;5.53;3.50;;;18.40;99.90;;;;;;5019585;28;20232;-82
2022/10/31 12:24:55;;;;;;;5.60;3.67;;;18.40;99.90;;;;;;5012653;28;20750;-82
2022/10/31 12:27:36;;;;;;;5.57;3.90;;;18.30;99.90;;;;;;5005346;28;20269;-81
2022/10/31 12:30:18;;;;;;;6.17;3.87;;;18.30;99.90;;;;;;5004582;28;20231;-80
2022/10/31 12:33:03;;;;;;;5.30;4.00;;;18.30;99.90;;;;;;5008272;28;20206;-83
2022/10/31 12:35:51;;;;;;;4.73;3.80;;;18.30;99.90;;;;;;5006545;28;20192;-82
2022/10/31 12:38:50;;;;;;;5.70;4.03;;;18.30;99.90;;;;;;5006745;28;20231;-82
2022/10/31 12:41:34;;;;;;;6.23;4.10;;;18.30;99.90;;;;;;5004550;28;20209;-85
2022/10/31 12:44:07;;;;;;;5.63;3.90;;;18.20;99.90;;;;;;5005516;28;20200;-80
2022/10/31 12:47:00;;;;;;;4.17;3.77;;;18.20;99.90;;;;;;5008943;28;20233;-81
2022/10/31 12:49:43;;;;;;;5.57;4.00;;;18.10;99.90;;;;;;5005772;28;20219;-80
2022/10/31 12:52:26;;;;;;;5.77;3.90;;;18.10;99.90;;;;;;5010621;28;20203;-80
2022/10/31 12:55:07;;;;;;;6.90;3.93;;;18.10;99.90;;;;;;5001225;28;20202;-80
2022/10/31 12:57:46;;;;;;;5.27;3.70;;;18.10;99.90;;;;;;5009397;28;20210;-79
2022/10/31 13:00:16;;;;;;;5.43;4.00;;;18.00;99.90;;;;;;5009267;28;20739;-85
2022/10/31 13:02:49;;;;;;;4.50;3.50;;;18.00;99.90;;;;;;5011396;28;20217;-85
2022/10/31 13:05:25;;;;;;;4.83;3.93;;;18.10;99.90;;;;;;4999500;28;20227;-85
2022/10/31 13:07:57;;;;;;;6.30;3.83;;;18.10;99.90;;;;;;4997189;28;20214;-85
2022/10/31 13:10:30;;;;;;;6.50;6.00;;;18.20;99.90;;;;;;5001462;28;20215;-85
2022/10/31 13:13:03;;;;;;;8.70;7.90;;;18.20;99.90;;;;;;5006174;28;20214;-81
2022/10/31 13:15:50;;;;;;;8.63;7.83;;;18.20;99.90;;;;;;5009553;28;20199;-82
2022/10/31 13:18:27;;;;;;;8.53;7.77;;;18.30;99.90;;;;;;5008479;28;20203;-81
2022/10/31 13:20:55;;;;;;;8.60;7.90;;;18.30;99.90;;;;;;5013815;28;20198;-81